sensor_id;sensor_type;location;lat;lon;timestamp;P1;durP1;ratioP1;P2;durP2;ratioP2
6757;SDS011;3416;53.074;8.822;2024-01-07T00:02:05;11.57;;;7.20;;
6757;SDS011;3416;53.074;8.822;2024-01-07T00:04:33;8.10;;;5.97;;
6757;SDS011;3416;53.074;8.822;2024-01-07T00:07:00;8.30;;;5.90;;
6757;SDS011;3416;53.074;8.822;2024-01-07T00:09:27;11.48;;;7.00;;
6757;SDS011;3416;53.074;8.822;2024-01-07T00:11:54;8.60;;;6.45;;
6757;SDS011;3416;53.074;8.822;2024-01-07T00:14:21;8.70;;;5.68;;
6757;SDS011;3416;53.074;8.822;2024-01-07T00:16:48;10.57;;;6.70;;
6757;SDS011;3416;53.074;8.822;2024-01-07T00:19:15;6.60;;;5.65;;
6757;SDS011;3416;53.074;8.822;2024-01-07T00:21:44;6.65;;;5.65;;
6757;SDS011;3416;53.074;8.822;2024-01-07T00:24:11;8.77;;;7.05;;
6757;SDS011;3416;53.074;8.822;2024-01-07T00:26:38;7.55;;;6.00;;
6757;SDS011;3416;53.074;8.822;2024-01-07T00:29:05;7.05;;;5.90;;
6757;SDS011;3416;53.074;8.822;2024-01-07T00:31:32;6.97;;;5.75;;
6757;SDS011;3416;53.074;8.822;2024-01-07T00:33:59;5.65;;;4.80;;
6757;SDS011;3416;53.074;8.822;2024-01-07T00:36:26;5.78;;;4.95;;
6757;SDS011;3416;53.074;8.822;2024-01-07T00:38:55;9.38;;;6.53;;
6757;SDS011;3416;53.074;8.822;2024-01-07T00:41:22;8.98;;;5.90;;
6757;SDS011;3416;53.074;8.822;2024-01-07T00:43:49;9.45;;;6.88;;
6757;SDS011;3416;53.074;8.822;2024-01-07T00:46:17;9.75;;;6.30;;
6757;SDS011;3416;53.074;8.822;2024-01-07T00:48:44;7.63;;;6.25;;
6757;SDS011;3416;53.074;8.822;2024-01-07T00:51:12;9.50;;;6.60;;
6757;SDS011;3416;53.074;8.822;2024-01-07T00:53:39;8.10;;;6.03;;
6757;SDS011;3416;53.074;8.822;2024-01-07T00:56:07;6.30;;;4.60;;
6757;SDS011;3416;53.074;8.822;2024-01-07T00:58:35;7.53;;;5.20;;
6757;SDS011;3416;53.074;8.822;2024-01-07T01:01:02;6.32;;;5.40;;
6757;SDS011;3416;53.074;8.822;2024-01-07T01:03:29;8.40;;;5.35;;
6757;SDS011;3416;53.074;8.822;2024-01-07T01:05:58;7.22;;;5.53;;
6757;SDS011;3416;53.074;8.822;2024-01-07T01:08:25;7.93;;;5.70;;
6757;SDS011;3416;53.074;8.822;2024-01-07T01:10:52;9.95;;;5.82;;
6757;SDS011;3416;53.074;8.822;2024-01-07T01:13:20;7.60;;;5.20;;
6757;SDS011;3416;53.074;8.822;2024-01-07T01:15:47;5.60;;;4.78;;
6757;SDS011;3416;53.074;8.822;2024-01-07T01:18:14;6.13;;;5.53;;
6757;SDS011;3416;53.074;8.822;2024-01-07T01:20:42;6.75;;;5.22;;
6757;SDS011;3416;53.074;8.822;2024-01-07T01:23:09;6.50;;;5.20;;
6757;SDS011;3416;53.074;8.822;2024-01-07T01:25:36;8.13;;;5.40;;
6757;SDS011;3416;53.074;8.822;2024-01-07T01:28:05;8.35;;;5.68;;
6757;SDS011;3416;53.074;8.822;2024-01-07T01:30:33;9.75;;;5.45;;
6757;SDS011;3416;53.074;8.822;2024-01-07T01:33:00;6.43;;;5.60;;
6757;SDS011;3416;53.074;8.822;2024-01-07T01:35:28;12.48;;;5.85;;
6757;SDS011;3416;53.074;8.822;2024-01-07T01:37:55;8.43;;;6.65;;
6757;SDS011;3416;53.074;8.822;2024-01-07T01:40:22;8.43;;;5.00;;
6757;SDS011;3416;53.074;8.822;2024-01-07T01:42:49;9.52;;;6.55;;
6757;SDS011;3416;53.074;8.822;2024-01-07T01:45:16;14.40;;;6.88;;
6757;SDS011;3416;53.074;8.822;2024-01-07T01:47:45;8.13;;;6.38;;
6757;SDS011;3416;53.074;8.822;2024-01-07T01:50:13;13.15;;;6.68;;
6757;SDS011;3416;53.074;8.822;2024-01-07T01:52:41;9.23;;;7.43;;
6757;SDS011;3416;53.074;8.822;2024-01-07T01:55:09;12.63;;;8.25;;
6757;SDS011;3416;53.074;8.822;2024-01-07T01:57:36;13.85;;;8.00;;
6757;SDS011;3416;53.074;8.822;2024-01-07T02:00:06;18.50;;;7.53;;
6757;SDS011;3416;53.074;8.822;2024-01-07T02:02:33;12.73;;;7.28;;
6757;SDS011;3416;53.074;8.822;2024-01-07T02:05:02;11.98;;;7.88;;
6757;SDS011;3416;53.074;8.822;2024-01-07T02:07:29;9.82;;;6.85;;
6757;SDS011;3416;53.074;8.822;2024-01-07T02:09:57;12.23;;;8.35;;
6757;SDS011;3416;53.074;8.822;2024-01-07T02:12:25;10.57;;;7.50;;
6757;SDS011;3416;53.074;8.822;2024-01-07T02:14:52;7.90;;;7.10;;
6757;SDS011;3416;53.074;8.822;2024-01-07T02:17:19;8.85;;;7.20;;
6757;SDS011;3416;53.074;8.822;2024-01-07T02:19:46;7.75;;;5.90;;
6757;SDS011;3416;53.074;8.822;2024-01-07T02:22:14;6.45;;;5.28;;
6757;SDS011;3416;53.074;8.822;2024-01-07T02:24:43;7.35;;;6.07;;
6757;SDS011;3416;53.074;8.822;2024-01-07T02:27:10;6.63;;;5.47;;
6757;SDS011;3416;53.074;8.822;2024-01-07T02:29:37;5.47;;;4.35;;
6757;SDS011;3416;53.074;8.822;2024-01-07T02:32:04;6.43;;;4.57;;
6757;SDS011;3416;53.074;8.822;2024-01-07T02:34:32;7.32;;;3.70;;
6757;SDS011;3416;53.074;8.822;2024-01-07T02:36:59;8.52;;;3.85;;
6757;SDS011;3416;53.074;8.822;2024-01-07T02:39:26;4.22;;;3.65;;
6757;SDS011;3416;53.074;8.822;2024-01-07T02:41:54;7.38;;;4.60;;
6757;SDS011;3416;53.074;8.822;2024-01-07T02:44:21;5.93;;;3.65;;
6757;SDS011;3416;53.074;8.822;2024-01-07T02:46:48;4.85;;;3.55;;
6757;SDS011;3416;53.074;8.822;2024-01-07T02:49:15;7.07;;;3.75;;
6757;SDS011;3416;53.074;8.822;2024-01-07T02:51:42;3.50;;;3.20;;
6757;SDS011;3416;53.074;8.822;2024-01-07T02:54:10;3.92;;;3.47;;
6757;SDS011;3416;53.074;8.822;2024-01-07T02:56:37;6.63;;;4.15;;
6757;SDS011;3416;53.074;8.822;2024-01-07T02:59:40;4.30;;;3.47;;
6757;SDS011;3416;53.074;8.822;2024-01-07T03:02:07;5.15;;;4.10;;
6757;SDS011;3416;53.074;8.822;2024-01-07T03:04:34;5.45;;;3.60;;
6757;SDS011;3416;53.074;8.822;2024-01-07T03:07:01;5.32;;;3.85;;
6757;SDS011;3416;53.074;8.822;2024-01-07T03:09:28;4.13;;;3.72;;
6757;SDS011;3416;53.074;8.822;2024-01-07T03:11:55;6.88;;;2.92;;
6757;SDS011;3416;53.074;8.822;2024-01-07T03:14:22;5.70;;;3.20;;
6757;SDS011;3416;53.074;8.822;2024-01-07T03:16:50;4.40;;;3.00;;
6757;SDS011;3416;53.074;8.822;2024-01-07T03:19:17;8.27;;;2.85;;
6757;SDS011;3416;53.074;8.822;2024-01-07T03:21:45;7.88;;;4.20;;
6757;SDS011;3416;53.074;8.822;2024-01-07T03:24:15;4.97;;;3.72;;
6757;SDS011;3416;53.074;8.822;2024-01-07T03:26:42;4.55;;;3.25;;
6757;SDS011;3416;53.074;8.822;2024-01-07T03:29:09;4.95;;;4.25;;
6757;SDS011;3416;53.074;8.822;2024-01-07T03:31:36;6.13;;;2.78;;
6757;SDS011;3416;53.074;8.822;2024-01-07T03:34:04;3.70;;;3.30;;
6757;SDS011;3416;53.074;8.822;2024-01-07T03:36:31;9.45;;;3.90;;
6757;SDS011;3416;53.074;8.822;2024-01-07T03:38:58;4.35;;;3.10;;
6757;SDS011;3416;53.074;8.822;2024-01-07T03:41:25;8.13;;;3.78;;
6757;SDS011;3416;53.074;8.822;2024-01-07T03:43:52;6.05;;;3.63;;
6757;SDS011;3416;53.074;8.822;2024-01-07T03:46:19;3.58;;;2.80;;
6757;SDS011;3416;53.074;8.822;2024-01-07T03:48:46;4.05;;;3.05;;
6757;SDS011;3416;53.074;8.822;2024-01-07T03:51:14;4.40;;;3.42;;
6757;SDS011;3416;53.074;8.822;2024-01-07T03:53:41;4.15;;;2.90;;
6757;SDS011;3416;53.074;8.822;2024-01-07T03:56:08;2.28;;;1.80;;
6757;SDS011;3416;53.074;8.822;2024-01-07T03:58:35;3.28;;;2.72;;
6757;SDS011;3416;53.074;8.822;2024-01-07T04:01:02;2.65;;;2.05;;
6757;SDS011;3416;53.074;8.822;2024-01-07T04:03:30;3.40;;;2.45;;
6757;SDS011;3416;53.074;8.822;2024-01-07T04:05:57;4.28;;;3.30;;
6757;SDS011;3416;53.074;8.822;2024-01-07T04:08:25;3.28;;;2.97;;
6757;SDS011;3416;53.074;8.822;2024-01-07T04:10:52;4.32;;;2.95;;
6757;SDS011;3416;53.074;8.822;2024-01-07T04:13:19;6.38;;;2.45;;
6757;SDS011;3416;53.074;8.822;2024-01-07T04:15:46;3.20;;;2.60;;
6757;SDS011;3416;53.074;8.822;2024-01-07T04:18:13;2.72;;;2.25;;
6757;SDS011;3416;53.074;8.822;2024-01-07T04:20:40;4.70;;;2.40;;
6757;SDS011;3416;53.074;8.822;2024-01-07T04:23:07;11.73;;;4.25;;
6757;SDS011;3416;53.074;8.822;2024-01-07T04:25:35;3.25;;;2.50;;
6757;SDS011;3416;53.074;8.822;2024-01-07T04:28:03;5.15;;;2.28;;
6757;SDS011;3416;53.074;8.822;2024-01-07T04:30:30;2.67;;;2.45;;
6757;SDS011;3416;53.074;8.822;2024-01-07T04:32:57;3.85;;;2.90;;
6757;SDS011;3416;53.074;8.822;2024-01-07T04:35:24;3.28;;;2.05;;
6757;SDS011;3416;53.074;8.822;2024-01-07T04:37:51;3.60;;;2.20;;
6757;SDS011;3416;53.074;8.822;2024-01-07T04:40:18;3.45;;;2.65;;
6757;SDS011;3416;53.074;8.822;2024-01-07T04:42:46;3.53;;;2.20;;
6757;SDS011;3416;53.074;8.822;2024-01-07T04:45:13;4.63;;;2.92;;
6757;SDS011;3416;53.074;8.822;2024-01-07T04:47:40;2.17;;;1.90;;
6757;SDS011;3416;53.074;8.822;2024-01-07T04:50:07;3.50;;;2.40;;
6757;SDS011;3416;53.074;8.822;2024-01-07T04:52:34;3.40;;;2.60;;
6757;SDS011;3416;53.074;8.822;2024-01-07T04:55:01;4.00;;;2.67;;
6757;SDS011;3416;53.074;8.822;2024-01-07T04:57:28;4.07;;;2.53;;
6757;SDS011;3416;53.074;8.822;2024-01-07T04:59:56;3.10;;;2.20;;
6757;SDS011;3416;53.074;8.822;2024-01-07T05:02:24;3.47;;;2.38;;
6757;SDS011;3416;53.074;8.822;2024-01-07T05:04:50;2.47;;;1.67;;
6757;SDS011;3416;53.074;8.822;2024-01-07T05:07:17;6.78;;;2.00;;
6757;SDS011;3416;53.074;8.822;2024-01-07T05:09:44;2.38;;;1.88;;
6757;SDS011;3416;53.074;8.822;2024-01-07T05:12:11;2.63;;;1.70;;
6757;SDS011;3416;53.074;8.822;2024-01-07T05:14:38;3.03;;;2.50;;
6757;SDS011;3416;53.074;8.822;2024-01-07T05:17:09;4.80;;;2.28;;
6757;SDS011;3416;53.074;8.822;2024-01-07T05:19:36;2.30;;;2.10;;
6757;SDS011;3416;53.074;8.822;2024-01-07T05:22:06;3.80;;;2.35;;
6757;SDS011;3416;53.074;8.822;2024-01-07T05:24:32;6.78;;;3.47;;
6757;SDS011;3416;53.074;8.822;2024-01-07T05:26:59;2.28;;;2.08;;
6757;SDS011;3416;53.074;8.822;2024-01-07T05:29:26;3.50;;;2.90;;
6757;SDS011;3416;53.074;8.822;2024-01-07T05:31:53;4.43;;;2.75;;
6757;SDS011;3416;53.074;8.822;2024-01-07T05:34:22;6.07;;;3.60;;
6757;SDS011;3416;53.074;8.822;2024-01-07T05:36:49;3.17;;;2.20;;
6757;SDS011;3416;53.074;8.822;2024-01-07T05:39:15;2.47;;;2.25;;
6757;SDS011;3416;53.074;8.822;2024-01-07T05:41:42;7.60;;;2.35;;
6757;SDS011;3416;53.074;8.822;2024-01-07T05:44:09;3.88;;;2.42;;
6757;SDS011;3416;53.074;8.822;2024-01-07T05:46:38;3.65;;;2.35;;
6757;SDS011;3416;53.074;8.822;2024-01-07T05:49:05;4.45;;;2.63;;
6757;SDS011;3416;53.074;8.822;2024-01-07T05:51:37;2.95;;;1.95;;
6757;SDS011;3416;53.074;8.822;2024-01-07T05:54:05;6.80;;;2.55;;
6757;SDS011;3416;53.074;8.822;2024-01-07T05:56:32;6.63;;;2.10;;
6757;SDS011;3416;53.074;8.822;2024-01-07T05:59:04;3.22;;;2.55;;
6757;SDS011;3416;53.074;8.822;2024-01-07T06:01:31;3.03;;;2.28;;
6757;SDS011;3416;53.074;8.822;2024-01-07T06:03:58;3.08;;;2.25;;
6757;SDS011;3416;53.074;8.822;2024-01-07T06:06:25;3.72;;;2.03;;
6757;SDS011;3416;53.074;8.822;2024-01-07T06:08:53;2.20;;;2.00;;
6757;SDS011;3416;53.074;8.822;2024-01-07T06:11:20;3.50;;;2.50;;
6757;SDS011;3416;53.074;8.822;2024-01-07T06:13:47;5.18;;;2.42;;
6757;SDS011;3416;53.074;8.822;2024-01-07T06:16:14;4.40;;;2.20;;
6757;SDS011;3416;53.074;8.822;2024-01-07T06:18:41;2.30;;;1.85;;
6757;SDS011;3416;53.074;8.822;2024-01-07T06:21:08;2.67;;;2.17;;
6757;SDS011;3416;53.074;8.822;2024-01-07T06:23:34;8.00;;;1.85;;
6757;SDS011;3416;53.074;8.822;2024-01-07T06:26:04;3.50;;;2.90;;
6757;SDS011;3416;53.074;8.822;2024-01-07T06:28:31;2.92;;;2.45;;
6757;SDS011;3416;53.074;8.822;2024-01-07T06:30:59;2.67;;;2.00;;
6757;SDS011;3416;53.074;8.822;2024-01-07T06:33:28;2.92;;;2.47;;
6757;SDS011;3416;53.074;8.822;2024-01-07T06:35:55;3.42;;;1.80;;
6757;SDS011;3416;53.074;8.822;2024-01-07T06:38:22;2.40;;;2.05;;
6757;SDS011;3416;53.074;8.822;2024-01-07T06:40:50;2.80;;;2.42;;
6757;SDS011;3416;53.074;8.822;2024-01-07T06:43:20;4.15;;;2.13;;
6757;SDS011;3416;53.074;8.822;2024-01-07T06:45:48;4.93;;;2.33;;
6757;SDS011;3416;53.074;8.822;2024-01-07T06:48:15;2.67;;;2.05;;
6757;SDS011;3416;53.074;8.822;2024-01-07T06:50:42;4.65;;;2.25;;
6757;SDS011;3416;53.074;8.822;2024-01-07T06:53:09;3.22;;;2.13;;
6757;SDS011;3416;53.074;8.822;2024-01-07T06:55:36;2.95;;;2.10;;
6757;SDS011;3416;53.074;8.822;2024-01-07T06:58:03;5.82;;;2.60;;
6757;SDS011;3416;53.074;8.822;2024-01-07T07:00:32;4.35;;;2.50;;
6757;SDS011;3416;53.074;8.822;2024-01-07T07:02:59;3.65;;;2.47;;
6757;SDS011;3416;53.074;8.822;2024-01-07T07:05:26;3.03;;;2.10;;
6757;SDS011;3416;53.074;8.822;2024-01-07T07:07:53;3.92;;;2.58;;
6757;SDS011;3416;53.074;8.822;2024-01-07T07:10:20;4.10;;;2.40;;
6757;SDS011;3416;53.074;8.822;2024-01-07T07:12:47;3.30;;;2.55;;
6757;SDS011;3416;53.074;8.822;2024-01-07T07:15:15;4.28;;;2.13;;
6757;SDS011;3416;53.074;8.822;2024-01-07T07:17:44;3.30;;;2.20;;
6757;SDS011;3416;53.074;8.822;2024-01-07T07:20:11;4.22;;;2.20;;
6757;SDS011;3416;53.074;8.822;2024-01-07T07:22:38;2.40;;;2.00;;
6757;SDS011;3416;53.074;8.822;2024-01-07T07:25:05;4.43;;;2.17;;
6757;SDS011;3416;53.074;8.822;2024-01-07T07:27:33;3.17;;;2.30;;
6757;SDS011;3416;53.074;8.822;2024-01-07T07:30:00;4.05;;;2.00;;
6757;SDS011;3416;53.074;8.822;2024-01-07T07:32:27;10.38;;;2.08;;
6757;SDS011;3416;53.074;8.822;2024-01-07T07:34:55;2.20;;;1.80;;
6757;SDS011;3416;53.074;8.822;2024-01-07T07:37:23;5.68;;;2.40;;
6757;SDS011;3416;53.074;8.822;2024-01-07T07:39:50;4.05;;;2.72;;
6757;SDS011;3416;53.074;8.822;2024-01-07T07:42:17;3.40;;;2.03;;
6757;SDS011;3416;53.074;8.822;2024-01-07T07:44:45;5.50;;;2.25;;
6757;SDS011;3416;53.074;8.822;2024-01-07T07:47:13;3.20;;;2.47;;
6757;SDS011;3416;53.074;8.822;2024-01-07T07:49:40;6.15;;;2.55;;
6757;SDS011;3416;53.074;8.822;2024-01-07T07:52:09;6.10;;;2.38;;
6757;SDS011;3416;53.074;8.822;2024-01-07T07:54:36;2.83;;;1.95;;
6757;SDS011;3416;53.074;8.822;2024-01-07T07:57:04;10.32;;;2.97;;
6757;SDS011;3416;53.074;8.822;2024-01-07T07:59:30;6.10;;;2.88;;
6757;SDS011;3416;53.074;8.822;2024-01-07T08:01:58;2.83;;;1.70;;
6757;SDS011;3416;53.074;8.822;2024-01-07T08:04:25;2.55;;;1.80;;
6757;SDS011;3416;53.074;8.822;2024-01-07T08:06:52;3.55;;;2.55;;
6757;SDS011;3416;53.074;8.822;2024-01-07T08:09:22;2.45;;;2.25;;
6757;SDS011;3416;53.074;8.822;2024-01-07T08:11:50;2.45;;;2.20;;
6757;SDS011;3416;53.074;8.822;2024-01-07T08:14:17;3.38;;;2.80;;
6757;SDS011;3416;53.074;8.822;2024-01-07T08:16:44;3.53;;;2.83;;
6757;SDS011;3416;53.074;8.822;2024-01-07T08:19:11;5.47;;;2.47;;
6757;SDS011;3416;53.074;8.822;2024-01-07T08:21:38;3.85;;;2.28;;
6757;SDS011;3416;53.074;8.822;2024-01-07T08:24:05;3.40;;;3.10;;
6757;SDS011;3416;53.074;8.822;2024-01-07T08:26:33;4.05;;;2.38;;
6757;SDS011;3416;53.074;8.822;2024-01-07T08:29:01;2.95;;;2.10;;
6757;SDS011;3416;53.074;8.822;2024-01-07T08:31:29;4.60;;;2.90;;
6757;SDS011;3416;53.074;8.822;2024-01-07T08:33:57;12.95;;;4.05;;
6757;SDS011;3416;53.074;8.822;2024-01-07T08:36:24;7.10;;;4.88;;
6757;SDS011;3416;53.074;8.822;2024-01-07T08:38:51;10.05;;;3.50;;
6757;SDS011;3416;53.074;8.822;2024-01-07T08:43:50;3.28;;;2.42;;
6757;SDS011;3416;53.074;8.822;2024-01-07T08:46:19;3.70;;;2.95;;
6757;SDS011;3416;53.074;8.822;2024-01-07T08:48:46;3.35;;;1.92;;
6757;SDS011;3416;53.074;8.822;2024-01-07T08:51:13;3.60;;;1.92;;
6757;SDS011;3416;53.074;8.822;2024-01-07T08:53:40;2.88;;;1.95;;
6757;SDS011;3416;53.074;8.822;2024-01-07T08:56:07;3.83;;;2.75;;
6757;SDS011;3416;53.074;8.822;2024-01-07T08:58:34;6.15;;;3.35;;
6757;SDS011;3416;53.074;8.822;2024-01-07T09:01:03;3.15;;;2.40;;
6757;SDS011;3416;53.074;8.822;2024-01-07T09:03:30;2.72;;;1.83;;
6757;SDS011;3416;53.074;8.822;2024-01-07T09:05:57;3.28;;;2.42;;
6757;SDS011;3416;53.074;8.822;2024-01-07T09:08:24;4.53;;;2.55;;
6757;SDS011;3416;53.074;8.822;2024-01-07T09:10:51;6.05;;;2.92;;
6757;SDS011;3416;53.074;8.822;2024-01-07T09:13:18;4.90;;;2.60;;
6757;SDS011;3416;53.074;8.822;2024-01-07T09:15:45;2.85;;;1.98;;
6757;SDS011;3416;53.074;8.822;2024-01-07T09:18:13;3.53;;;3.22;;
6757;SDS011;3416;53.074;8.822;2024-01-07T09:20:41;2.78;;;2.00;;
6757;SDS011;3416;53.074;8.822;2024-01-07T09:23:08;6.13;;;2.70;;
6757;SDS011;3416;53.074;8.822;2024-01-07T09:25:35;5.15;;;2.28;;
6757;SDS011;3416;53.074;8.822;2024-01-07T09:28:02;2.55;;;2.05;;
6757;SDS011;3416;53.074;8.822;2024-01-07T09:30:31;3.42;;;2.35;;
6757;SDS011;3416;53.074;8.822;2024-01-07T09:32:58;3.35;;;2.67;;
6757;SDS011;3416;53.074;8.822;2024-01-07T09:35:26;4.65;;;2.35;;
6757;SDS011;3416;53.074;8.822;2024-01-07T09:37:53;3.83;;;2.85;;
6757;SDS011;3416;53.074;8.822;2024-01-07T09:40:20;4.07;;;2.65;;
6757;SDS011;3416;53.074;8.822;2024-01-07T09:42:47;3.95;;;2.88;;
6757;SDS011;3416;53.074;8.822;2024-01-07T09:45:16;6.05;;;2.80;;
6757;SDS011;3416;53.074;8.822;2024-01-07T09:47:45;3.33;;;3.03;;
6757;SDS011;3416;53.074;8.822;2024-01-07T09:50:12;7.18;;;2.75;;
6757;SDS011;3416;53.074;8.822;2024-01-07T09:52:42;4.88;;;2.75;;
6757;SDS011;3416;53.074;8.822;2024-01-07T09:55:11;4.70;;;2.47;;
6757;SDS011;3416;53.074;8.822;2024-01-07T09:57:45;5.50;;;3.95;;
6757;SDS011;3416;53.074;8.822;2024-01-07T10:00:12;5.30;;;3.33;;
6757;SDS011;3416;53.074;8.822;2024-01-07T10:02:40;6.40;;;3.05;;
6757;SDS011;3416;53.074;8.822;2024-01-07T10:05:07;4.68;;;4.20;;
6757;SDS011;3416;53.074;8.822;2024-01-07T10:07:34;3.13;;;2.83;;
6757;SDS011;3416;53.074;8.822;2024-01-07T10:10:11;5.90;;;4.20;;
6757;SDS011;3416;53.074;8.822;2024-01-07T10:12:43;4.70;;;3.40;;
6757;SDS011;3416;53.074;8.822;2024-01-07T10:15:11;7.40;;;4.75;;
6757;SDS011;3416;53.074;8.822;2024-01-07T10:17:39;4.85;;;3.15;;
6757;SDS011;3416;53.074;8.822;2024-01-07T10:22:38;7.90;;;4.00;;
6757;SDS011;3416;53.074;8.822;2024-01-07T10:25:06;5.45;;;4.88;;
6757;SDS011;3416;53.074;8.822;2024-01-07T10:27:34;6.00;;;3.92;;
6757;SDS011;3416;53.074;8.822;2024-01-07T10:30:03;5.30;;;4.20;;
6757;SDS011;3416;53.074;8.822;2024-01-07T10:32:31;7.90;;;3.80;;
6757;SDS011;3416;53.074;8.822;2024-01-07T10:35:01;6.43;;;4.85;;
6757;SDS011;3416;53.074;8.822;2024-01-07T10:37:29;5.80;;;4.50;;
6757;SDS011;3416;53.074;8.822;2024-01-07T10:39:57;6.38;;;4.03;;
6757;SDS011;3416;53.074;8.822;2024-01-07T10:42:28;10.70;;;4.40;;
6757;SDS011;3416;53.074;8.822;2024-01-07T10:44:58;8.93;;;4.53;;
6757;SDS011;3416;53.074;8.822;2024-01-07T10:47:26;4.00;;;3.40;;
6757;SDS011;3416;53.074;8.822;2024-01-07T10:49:56;5.22;;;3.42;;
6757;SDS011;3416;53.074;8.822;2024-01-07T10:52:25;9.68;;;4.13;;
6757;SDS011;3416;53.074;8.822;2024-01-07T10:54:53;6.22;;;3.97;;
6757;SDS011;3416;53.074;8.822;2024-01-07T10:57:24;12.13;;;5.35;;
6757;SDS011;3416;53.074;8.822;2024-01-07T11:00:02;6.07;;;4.30;;
6757;SDS011;3416;53.074;8.822;2024-01-07T11:02:33;6.65;;;4.30;;
6757;SDS011;3416;53.074;8.822;2024-01-07T11:05:08;5.10;;;4.00;;
6757;SDS011;3416;53.074;8.822;2024-01-07T11:07:45;7.60;;;4.28;;
6757;SDS011;3416;53.074;8.822;2024-01-07T11:10:19;7.40;;;5.18;;
6757;SDS011;3416;53.074;8.822;2024-01-07T11:12:53;5.75;;;4.00;;
6757;SDS011;3416;53.074;8.822;2024-01-07T11:18:20;7.70;;;4.20;;
6757;SDS011;3416;53.074;8.822;2024-01-07T11:20:48;6.55;;;4.50;;
6757;SDS011;3416;53.074;8.822;2024-01-07T11:23:29;7.97;;;4.95;;
6757;SDS011;3416;53.074;8.822;2024-01-07T11:25:58;7.68;;;5.10;;
6757;SDS011;3416;53.074;8.822;2024-01-07T11:31:16;5.95;;;4.00;;
6757;SDS011;3416;53.074;8.822;2024-01-07T11:33:45;5.43;;;3.45;;
6757;SDS011;3416;53.074;8.822;2024-01-07T11:36:13;5.15;;;3.58;;
6757;SDS011;3416;53.074;8.822;2024-01-07T11:38:41;5.63;;;4.38;;
6757;SDS011;3416;53.074;8.822;2024-01-07T11:41:09;9.35;;;5.20;;
6757;SDS011;3416;53.074;8.822;2024-01-07T11:43:38;5.50;;;4.43;;
6757;SDS011;3416;53.074;8.822;2024-01-07T11:46:19;6.32;;;4.10;;
6757;SDS011;3416;53.074;8.822;2024-01-07T11:48:46;5.30;;;4.38;;
6757;SDS011;3416;53.074;8.822;2024-01-07T11:51:14;7.13;;;5.30;;
6757;SDS011;3416;53.074;8.822;2024-01-07T11:53:41;7.20;;;3.80;;
6757;SDS011;3416;53.074;8.822;2024-01-07T11:56:12;6.97;;;4.22;;
6757;SDS011;3416;53.074;8.822;2024-01-07T11:58:39;6.55;;;4.97;;
6757;SDS011;3416;53.074;8.822;2024-01-07T12:01:07;6.20;;;3.50;;
6757;SDS011;3416;53.074;8.822;2024-01-07T12:03:36;5.45;;;4.38;;
6757;SDS011;3416;53.074;8.822;2024-01-07T12:06:03;5.13;;;3.67;;
6757;SDS011;3416;53.074;8.822;2024-01-07T12:08:30;7.50;;;4.55;;
6757;SDS011;3416;53.074;8.822;2024-01-07T12:10:58;4.07;;;3.60;;
6757;SDS011;3416;53.074;8.822;2024-01-07T12:13:28;5.10;;;3.95;;
6757;SDS011;3416;53.074;8.822;2024-01-07T12:15:56;5.97;;;3.25;;
6757;SDS011;3416;53.074;8.822;2024-01-07T12:18:23;4.60;;;3.80;;
6757;SDS011;3416;53.074;8.822;2024-01-07T12:20:55;6.82;;;4.10;;
6757;SDS011;3416;53.074;8.822;2024-01-07T12:23:23;7.35;;;4.88;;
6757;SDS011;3416;53.074;8.822;2024-01-07T12:25:50;6.00;;;4.00;;
6757;SDS011;3416;53.074;8.822;2024-01-07T12:28:18;4.93;;;4.35;;
6757;SDS011;3416;53.074;8.822;2024-01-07T12:30:45;4.85;;;3.50;;
6757;SDS011;3416;53.074;8.822;2024-01-07T12:33:15;10.18;;;3.17;;
6757;SDS011;3416;53.074;8.822;2024-01-07T12:35:45;5.80;;;4.32;;
6757;SDS011;3416;53.074;8.822;2024-01-07T12:38:14;6.97;;;4.28;;
6757;SDS011;3416;53.074;8.822;2024-01-07T12:40:41;5.68;;;3.92;;
6757;SDS011;3416;53.074;8.822;2024-01-07T12:43:08;6.90;;;4.30;;
6757;SDS011;3416;53.074;8.822;2024-01-07T12:45:35;6.10;;;4.07;;
6757;SDS011;3416;53.074;8.822;2024-01-07T12:48:02;4.28;;;3.80;;
6757;SDS011;3416;53.074;8.822;2024-01-07T12:50:30;6.95;;;3.88;;
6757;SDS011;3416;53.074;8.822;2024-01-07T12:52:58;6.00;;;3.50;;
6757;SDS011;3416;53.074;8.822;2024-01-07T12:55:26;7.45;;;4.32;;
6757;SDS011;3416;53.074;8.822;2024-01-07T12:57:54;5.68;;;4.15;;
6757;SDS011;3416;53.074;8.822;2024-01-07T13:00:23;5.55;;;4.25;;
6757;SDS011;3416;53.074;8.822;2024-01-07T13:02:50;4.78;;;4.18;;
6757;SDS011;3416;53.074;8.822;2024-01-07T13:05:17;7.10;;;4.20;;
6757;SDS011;3416;53.074;8.822;2024-01-07T13:07:45;6.43;;;3.20;;
6757;SDS011;3416;53.074;8.822;2024-01-07T13:10:13;9.25;;;5.28;;
6757;SDS011;3416;53.074;8.822;2024-01-07T13:12:42;7.18;;;5.07;;
6757;SDS011;3416;53.074;8.822;2024-01-07T13:15:09;6.05;;;4.13;;
6757;SDS011;3416;53.074;8.822;2024-01-07T13:17:37;5.57;;;4.07;;
6757;SDS011;3416;53.074;8.822;2024-01-07T13:20:05;7.60;;;4.82;;
6757;SDS011;3416;53.074;8.822;2024-01-07T13:22:36;8.75;;;3.75;;
6757;SDS011;3416;53.074;8.822;2024-01-07T13:25:03;4.07;;;3.20;;
6757;SDS011;3416;53.074;8.822;2024-01-07T13:27:31;8.32;;;4.47;;
6757;SDS011;3416;53.074;8.822;2024-01-07T13:29:59;7.32;;;5.18;;
6757;SDS011;3416;53.074;8.822;2024-01-07T13:32:26;7.47;;;5.05;;
6757;SDS011;3416;53.074;8.822;2024-01-07T13:34:53;4.88;;;4.10;;
6757;SDS011;3416;53.074;8.822;2024-01-07T13:37:20;9.32;;;3.92;;
6757;SDS011;3416;53.074;8.822;2024-01-07T13:39:47;6.65;;;4.13;;
6757;SDS011;3416;53.074;8.822;2024-01-07T13:42:14;5.18;;;3.92;;
6757;SDS011;3416;53.074;8.822;2024-01-07T13:44:41;5.78;;;3.63;;
6757;SDS011;3416;53.074;8.822;2024-01-07T13:47:13;4.90;;;3.47;;
6757;SDS011;3416;53.074;8.822;2024-01-07T13:49:40;6.47;;;3.95;;
6757;SDS011;3416;53.074;8.822;2024-01-07T13:52:07;7.35;;;4.45;;
6757;SDS011;3416;53.074;8.822;2024-01-07T13:54:34;5.82;;;4.72;;
6757;SDS011;3416;53.074;8.822;2024-01-07T13:57:03;10.85;;;4.82;;
6757;SDS011;3416;53.074;8.822;2024-01-07T13:59:32;4.82;;;4.25;;
6757;SDS011;3416;53.074;8.822;2024-01-07T14:01:58;5.82;;;5.07;;
6757;SDS011;3416;53.074;8.822;2024-01-07T14:04:26;4.82;;;4.05;;
6757;SDS011;3416;53.074;8.822;2024-01-07T14:06:54;5.45;;;3.95;;
6757;SDS011;3416;53.074;8.822;2024-01-07T14:09:22;6.10;;;3.85;;
6757;SDS011;3416;53.074;8.822;2024-01-07T14:11:49;5.43;;;4.15;;
6757;SDS011;3416;53.074;8.822;2024-01-07T14:14:17;6.15;;;5.07;;
6757;SDS011;3416;53.074;8.822;2024-01-07T14:16:45;8.45;;;6.15;;
6757;SDS011;3416;53.074;8.822;2024-01-07T14:19:12;5.75;;;4.47;;
6757;SDS011;3416;53.074;8.822;2024-01-07T14:21:42;5.00;;;3.90;;
6757;SDS011;3416;53.074;8.822;2024-01-07T14:24:09;8.15;;;5.20;;
6757;SDS011;3416;53.074;8.822;2024-01-07T14:26:36;8.77;;;5.32;;
6757;SDS011;3416;53.074;8.822;2024-01-07T14:29:03;6.15;;;4.47;;
6757;SDS011;3416;53.074;8.822;2024-01-07T14:31:31;7.30;;;4.60;;
6757;SDS011;3416;53.074;8.822;2024-01-07T14:33:59;7.18;;;5.10;;
6757;SDS011;3416;53.074;8.822;2024-01-07T14:36:26;5.95;;;4.80;;
6757;SDS011;3416;53.074;8.822;2024-01-07T14:38:54;4.40;;;3.45;;
6757;SDS011;3416;53.074;8.822;2024-01-07T14:41:21;10.85;;;5.30;;
6757;SDS011;3416;53.074;8.822;2024-01-07T14:43:48;5.60;;;4.28;;
6757;SDS011;3416;53.074;8.822;2024-01-07T14:46:15;6.68;;;4.80;;
6757;SDS011;3416;53.074;8.822;2024-01-07T14:48:42;9.55;;;5.05;;
6757;SDS011;3416;53.074;8.822;2024-01-07T14:51:09;6.78;;;4.72;;
6757;SDS011;3416;53.074;8.822;2024-01-07T14:53:36;6.95;;;4.10;;
6757;SDS011;3416;53.074;8.822;2024-01-07T14:56:05;6.82;;;4.30;;
6757;SDS011;3416;53.074;8.822;2024-01-07T14:58:32;10.02;;;4.03;;
6757;SDS011;3416;53.074;8.822;2024-01-07T15:00:59;4.47;;;4.07;;
6757;SDS011;3416;53.074;8.822;2024-01-07T15:03:27;5.03;;;4.45;;
6757;SDS011;3416;53.074;8.822;2024-01-07T15:05:54;8.40;;;4.50;;
6757;SDS011;3416;53.074;8.822;2024-01-07T15:08:22;6.43;;;4.35;;
6757;SDS011;3416;53.074;8.822;2024-01-07T15:10:49;8.38;;;4.15;;
6757;SDS011;3416;53.074;8.822;2024-01-07T15:13:18;6.05;;;3.50;;
6757;SDS011;3416;53.074;8.822;2024-01-07T15:15:45;13.73;;;4.68;;
6757;SDS011;3416;53.074;8.822;2024-01-07T15:18:12;6.97;;;4.70;;
6757;SDS011;3416;53.074;8.822;2024-01-07T15:20:39;4.80;;;3.28;;
6757;SDS011;3416;53.074;8.822;2024-01-07T15:23:06;3.95;;;3.60;;
6757;SDS011;3416;53.074;8.822;2024-01-07T15:25:33;6.68;;;4.28;;
6757;SDS011;3416;53.074;8.822;2024-01-07T15:28:00;5.93;;;4.10;;
6757;SDS011;3416;53.074;8.822;2024-01-07T15:30:29;6.90;;;4.43;;